Time;durP1;ratioP1;P1;durP2;ratioP2;P2;SDS_P1;SDS_P2;PMS_P1;PMS_P2;Temp;Humidity;BMP_temperature;BMP_pressure;BME280_temperature;BME280_humidity;BME280_pressure;Samples;Min_cycle;Max_cycle;Signal;HPM_P1;HPM_P2
2021/03/30 00:00:49;;;;;;;8.93;3.88;;;;;;;7.36;59.54;101858.06;2073044;28;20050;-84
2021/03/30 00:01:49;;;;;;;7.60;4.00;;;;;;;7.31;59.51;101858.00;2073009;28;20029;-85
2021/03/30 00:02:50;;;;;;;8.93;4.00;;;;;;;7.35;59.42;101861.50;2073111;28;20484;-78
2021/03/30 00:03:50;;;;;;;8.60;3.43;;;;;;;7.41;59.39;101860.69;2077111;28;20383;-87
2021/03/30 00:04:51;;;;;;;6.57;3.90;;;;;;;7.36;59.45;101857.16;2081408;28;20025;-82
2021/03/30 00:05:51;;;;;;;5.47;3.40;;;;;;;7.31;59.56;101859.72;2081112;28;20033;-82
2021/03/30 00:06:51;;;;;;;10.43;3.80;;;;;;;7.23;59.59;101866.56;2081143;28;20056;-86
2021/03/30 00:07:51;;;;;;;7.47;3.67;;;;;;;7.21;59.58;101858.78;2081142;28;20096;-84
2021/03/30 00:08:52;;;;;;;9.93;3.80;;;;;;;7.08;59.91;101857.78;2081077;28;20049;-88
2021/03/30 00:09:52;;;;;;;7.93;3.90;;;;;;;6.96;60.81;101865.41;2078684;28;20029;-88
2021/03/30 00:10:53;;;;;;;9.77;3.93;;;;;;;6.88;61.61;101869.63;2069796;28;20068;-86
2021/03/30 00:11:53;;;;;;;6.25;4.07;;;;;;;6.76;62.15;101871.22;2059931;28;20081;-86
2021/03/30 00:12:53;;;;;;;8.57;3.90;;;;;;;6.67;62.72;101861.59;2066676;28;20034;-85
2021/03/30 00:13:54;;;;;;;7.87;4.07;;;;;;;6.56;63.02;101862.31;2076364;28;20056;-86
2021/03/30 00:14:54;;;;;;;8.10;3.87;;;;;;;6.47;63.32;101863.94;2076694;28;20432;-86
2021/03/30 00:15:54;;;;;;;8.43;3.73;;;;;;;6.38;63.71;101866.41;2077037;28;20053;-86
2021/03/30 00:16:55;;;;;;;10.40;4.27;;;;;;;6.29;63.74;101855.94;2073067;28;20050;-86
2021/03/30 00:17:55;;;;;;;5.17;3.90;;;;;;;6.26;64.09;101854.16;2076029;28;20732;-86
2021/03/30 00:18:55;;;;;;;9.37;4.10;;;;;;;6.23;64.07;101856.72;2081429;28;20041;-86
2021/03/30 00:19:55;;;;;;;8.73;3.90;;;;;;;6.16;63.98;101854.88;2080889;28;20056;-83
2021/03/30 00:20:56;;;;;;;9.30;4.80;;;;;;;6.11;64.26;101852.22;2076291;28;20026;-82
2021/03/30 00:21:56;;;;;;;7.17;3.70;;;;;;;6.18;64.24;101848.00;2072932;28;20029;-83
2021/03/30 00:22:57;;;;;;;7.73;4.00;;;;;;;6.09;64.13;101856.50;2072881;28;20419;-83
2021/03/30 00:23:57;;;;;;;8.18;3.92;;;;;;;6.11;64.46;101849.63;2076677;28;20101;-84
2021/03/30 00:24:57;;;;;;;11.47;3.70;;;;;;;6.03;64.48;101854.69;2080762;28;20049;-82
2021/03/30 00:25:57;;;;;;;10.83;4.00;;;;;;;6.04;64.58;101852.97;2076216;28;20022;-82
2021/03/30 00:26:58;;;;;;;8.73;3.90;;;;;;;6.11;64.81;101854.81;2072741;28;20030;-83
2021/03/30 00:27:58;;;;;;;10.87;4.43;;;;;;;6.15;64.57;101854.00;2072972;28;20014;-84
2021/03/30 00:28:58;;;;;;;7.50;4.03;;;;;;;5.98;64.90;101852.84;2072854;28;20022;-75
2021/03/30 00:29:59;;;;;;;8.27;4.53;;;;;;;5.86;65.76;101854.41;2077834;28;20045;-75
2021/03/30 00:30:59;;;;;;;9.77;4.57;;;;;;;5.86;65.78;101858.72;2080353;28;20167;-75
2021/03/30 00:32:00;;;;;;;12.60;5.27;;;;;;;5.83;65.81;101851.75;2075963;28;20030;-75
2021/03/30 00:33:00;;;;;;;7.20;4.27;;;;;;;5.79;66.31;101857.75;2072793;28;20472;-75
2021/03/30 00:34:00;;;;;;;16.77;5.37;;;;;;;5.73;66.80;101857.66;2077796;28;20091;-76
2021/03/30 00:35:00;;;;;;;10.47;4.60;;;;;;;5.60;66.91;101852.25;2076223;28;20029;-76
2021/03/30 00:36:01;;;;;;;11.67;5.37;;;;;;;5.56;66.85;101858.22;2079361;28;20038;-75
2021/03/30 00:37:01;;;;;;;9.70;5.00;;;;;;;5.53;67.23;101860.78;2081193;28;20060;-75
2021/03/30 00:38:02;;;;;;;11.97;5.53;;;;;;;5.49;67.60;101858.06;2069447;28;20053;-75
2021/03/30 00:39:03;;;;;;;9.00;4.80;;;;;;;5.42;68.08;101852.81;2069775;28;20384;-75
2021/03/30 00:40:06;;;;;;;11.65;5.15;;;;;;;5.34;68.29;101853.53;2076722;28;20383;-75
2021/03/30 00:41:06;;;;;;;10.88;4.90;;;;;;;5.33;68.71;101855.22;2076846;28;20040;-75
2021/03/30 00:42:07;;;;;;;9.07;4.93;;;;;;;5.30;68.39;101858.63;2077044;28;20101;-75
2021/03/30 00:43:07;;;;;;;13.93;5.13;;;;;;;5.32;68.59;101853.47;2072305;28;20046;-75
2021/03/30 00:44:14;;;;;;;10.03;5.30;;;;;;;5.22;68.74;101857.63;2062250;28;20037;-75
2021/03/30 00:45:15;;;;;;;8.50;4.88;;;;;;;5.16;69.47;101849.75;2067024;28;20037;-74
2021/03/30 00:46:17;;;;;;;7.13;5.03;;;;;;;5.12;69.94;101853.13;2080979;28;20426;-74
2021/03/30 00:47:20;;;;;;;12.65;4.82;;;;;;;5.07;69.88;101854.72;2079333;28;20037;-74
2021/03/30 00:48:26;;;;;;;12.65;5.13;;;;;;;5.00;70.12;101856.31;2069220;28;20033;-74
2021/03/30 00:49:30;;;;;;;9.82;5.80;;;;;;;5.01;70.62;101852.91;2071577;28;20018;-74
2021/03/30 00:50:32;;;;;;;14.40;5.57;;;;;;;4.93;70.64;101863.13;2076857;28;20025;-75
2021/03/30 00:51:33;;;;;;;12.70;5.32;;;;;;;4.90;71.12;101855.28;2075756;28;20040;-75
2021/03/30 00:52:33;;;;;;;13.80;4.90;;;;;;;4.89;71.15;101863.88;2077471;28;20444;-75
2021/03/30 00:53:35;;;;;;;11.38;5.72;;;;;;;4.82;71.11;101864.59;2081146;28;20025;-75
2021/03/30 00:54:35;;;;;;;;;;;;;;;4.80;70.97;101861.09;2078873;28;20112;-75
2021/03/30 00:55:36;;;;;;;12.38;4.97;;;;;;;4.83;70.49;101863.75;2080168;28;20398;-75
2021/03/30 00:56:37;;;;;;;11.67;6.00;;;;;;;4.86;70.87;101860.38;2080764;28;20104;-75
2021/03/30 00:57:37;;;;;;;11.13;5.32;;;;;;;4.77;71.53;101861.03;2080980;28;20026;-75
2021/03/30 00:58:38;;;;;;;10.02;5.28;;;;;;;4.70;72.11;101865.22;2077725;28;20029;-75
2021/03/30 00:59:39;;;;;;;12.30;5.55;;;;;;;4.72;72.37;101862.66;2077566;28;20044;-75
2021/03/30 01:00:39;;;;;;;10.33;5.20;;;;;;;4.67;72.58;101865.16;2076074;28;20030;-75
2021/03/30 01:01:39;;;;;;;11.23;5.70;;;;;;;4.63;72.28;101864.22;2077358;28;20033;-75
2021/03/30 01:02:40;;;;;;;9.70;5.27;;;;;;;4.64;72.28;101868.56;2076245;28;20041;-74
2021/03/30 01:03:40;;;;;;;12.57;6.13;;;;;;;4.65;72.31;101865.09;2077566;28;20052;-77
2021/03/30 01:04:41;;;;;;;12.40;5.60;;;;;;;4.66;72.10;101860.81;2076369;28;20275;-77
2021/03/30 01:05:41;;;;;;;10.57;5.77;;;;;;;4.61;72.69;101865.91;2068613;28;20014;-78
2021/03/30 01:06:41;;;;;;;11.73;5.60;;;;;;;4.64;72.64;101855.63;2067740;28;20032;-78
2021/03/30 01:08:20;;;;;;;9.97;5.23;;;;;;;4.58;73.04;101860.66;2078893;28;20021;-78
2021/03/30 01:09:30;;;;;;;11.40;5.63;;;;;;;4.55;73.14;101863.19;2072155;28;20025;-78
2021/03/30 01:10:41;;;;;;;13.30;6.05;;;;;;;4.53;73.66;101867.44;2073033;28;20241;-78
2021/03/30 01:11:59;;;;;;;9.15;5.35;;;;;;;4.50;73.39;101865.69;2075029;28;20022;-79
2021/03/30 01:13:14;;;;;;;11.95;6.57;;;;;;;4.70;72.69;101862.66;2076233;28;20157;-79
2021/03/30 01:14:17;;;;;;;16.77;6.80;;;;;;;4.74;72.51;101854.09;2076976;28;20088;-79
2021/03/30 01:15:42;;;;;;;11.10;5.32;;;;;;;4.81;72.26;101860.28;2072822;28;20037;-79
2021/03/30 01:16:51;;;;;;;10.57;5.88;;;;;;;4.72;72.40;101860.09;2069700;28;20021;-78
2021/03/30 01:18:12;;;;;;;12.23;6.05;;;;;;;4.61;72.97;101863.31;2074248;28;20476;-78
2021/03/30 01:19:37;;;;;;;10.57;5.90;;;;;;;4.57;73.12;101864.06;2072750;28;20350;-79
2021/03/30 01:20:56;;;;;;;13.07;6.45;;;;;;;4.58;72.99;101860.66;2074249;28;20639;-78
2021/03/30 01:22:20;;;;;;;12.02;5.53;;;;;;;4.53;73.40;101867.44;2076276;28;20083;-78
2021/03/30 01:23:48;;;;;;;13.07;6.43;;;;;;;4.45;73.27;101858.66;2079729;28;20503;-78
2021/03/30 01:24:58;;;;;;;11.00;6.30;;;;;;;4.41;73.28;101862.00;2078755;28;20022;-78
2021/03/30 01:26:15;;;;;;;12.63;6.80;;;;;;;4.39;73.30;101866.25;2077307;28;20026;-78
2021/03/30 01:27:32;;;;;;;13.73;7.07;;;;;;;4.36;73.49;101860.19;2079794;28;20057;-78
2021/03/30 01:28:50;;;;;;;13.70;7.00;;;;;;;4.36;72.99;101857.59;2070186;28;20033;-78
2021/03/30 01:29:54;;;;;;;16.88;6.75;;;;;;;4.47;72.49;101867.28;2070664;28;20056;-78
2021/03/30 01:30:56;;;;;;;12.38;6.82;;;;;;;4.46;73.08;101860.38;2074285;28;20484;-78
2021/03/30 01:31:59;;;;;;;11.70;6.72;;;;;;;4.42;73.45;101864.59;2071241;28;20034;-78
2021/03/30 01:33:10;;;;;;;16.20;7.10;;;;;;;4.49;72.88;101866.50;2069050;28;20033;-78
2021/03/30 01:34:13;;;;;;;12.98;6.20;;;;;;;4.54;72.85;101866.63;2074716;28;20095;-78
2021/03/30 01:35:17;;;;;;;13.77;6.75;;;;;;;4.56;72.18;101864.91;2081416;28;20022;-78
2021/03/30 01:36:22;;;;;;;9.75;6.30;;;;;;;4.54;72.46;101861.44;2078405;28;20464;-78
2021/03/30 01:37:24;;;;;;;13.60;7.05;;;;;;;4.57;71.99;101860.63;2082075;28;20040;-79
2021/03/30 01:38:26;;;;;;;11.68;7.38;;;;;;;4.54;72.09;101853.69;2081567;28;20540;-78
2021/03/30 01:39:27;;;;;;;13.98;6.88;;;;;;;4.54;72.43;101863.13;2082119;28;20030;-79
2021/03/30 01:40:34;;;;;;;12.90;7.18;;;;;;;4.54;72.04;101864.03;2082018;28;20033;-79
2021/03/30 01:41:36;;;;;;;12.18;7.07;;;;;;;4.63;70.65;101859.06;2081685;28;20033;-79
2021/03/30 01:42:38;;;;;;;16.38;7.45;;;;;;;4.73;70.40;101860.09;2077448;28;20067;-79
2021/03/30 01:43:43;;;;;;;21.08;7.47;;;;;;;4.95;69.34;101856.22;2070603;28;20026;-79
2021/03/30 01:44:43;;;;;;;12.32;7.10;;;;;;;4.90;69.47;101857.88;2070146;28;20036;-78
2021/03/30 01:45:44;;;;;;;12.30;7.13;;;;;;;4.81;69.95;101858.53;2065312;28;20030;-78
2021/03/30 01:46:46;;;;;;;13.73;6.93;;;;;;;4.88;69.67;101854.38;2075775;28;20048;-78
2021/03/30 01:47:47;;;;;;;9.05;6.03;;;;;;;4.94;69.54;101854.53;2073980;28;20030;-78
2021/03/30 01:48:47;;;;;;;10.73;6.57;;;;;;;4.93;69.51;101847.59;2073827;28;20018;-79
2021/03/30 01:49:49;;;;;;;19.02;7.00;;;;;;;5.03;69.36;101852.94;2073893;28;20018;-79
2021/03/30 01:50:52;;;;;;;14.60;7.18;;;;;;;4.92;69.32;101851.03;2064751;28;20309;-78
2021/03/30 01:51:55;;;;;;;16.15;6.90;;;;;;;4.93;69.99;101851.88;2065474;28;20014;-78
2021/03/30 01:52:58;;;;;;;12.95;6.55;;;;;;;4.79;69.98;101844.75;2080617;28;20060;-78
2021/03/30 01:54:00;;;;;;;13.63;6.88;;;;;;;4.79;70.52;101849.03;2082091;28;20418;-78
2021/03/30 01:55:01;;;;;;;10.50;6.22;;;;;;;4.75;70.50;101852.41;2077773;28;20021;-78
2021/03/30 01:56:03;;;;;;;;;;;;;;;4.80;70.12;101853.34;2073409;28;20029;-78
2021/03/30 01:57:05;;;;;;;12.90;7.05;;;;;;;4.85;70.13;101849.13;2073270;28;19956;-78
2021/03/30 01:58:08;;;;;;;10.50;6.10;;;;;;;4.76;69.82;101851.53;2081971;28;20550;-78
2021/03/30 01:59:12;;;;;;;11.27;6.57;;;;;;;4.70;70.07;101851.44;2081959;28;20029;-78
2021/03/30 02:00:15;;;;;;;12.40;6.60;;;;;;;4.65;70.70;101853.91;2082037;28;20021;-78
2021/03/30 02:01:16;;;;;;;14.65;7.10;;;;;;;4.55;71.18;101852.88;2081673;28;20526;-78
2021/03/30 02:02:18;;;;;;;9.57;6.25;;;;;;;4.57;71.14;101858.06;2081875;28;20068;-78
2021/03/30 02:03:20;;;;;;;14.98;6.60;;;;;;;4.67;70.74;101855.69;2081901;28;20029;-78
2021/03/30 02:04:23;;;;;;;13.13;6.93;;;;;;;4.62;71.27;101859.00;2082021;28;20380;-78
2021/03/30 02:05:24;;;;;;;12.00;6.65;;;;;;;4.61;71.13;101855.56;2081926;28;20487;-78
2021/03/30 02:06:27;;;;;;;12.13;7.15;;;;;;;4.54;71.44;101853.69;2082079;28;20080;-78
2021/03/30 02:07:28;;;;;;;11.98;6.75;;;;;;;4.51;71.99;101851.91;2080726;28;20488;-78
2021/03/30 02:08:31;;;;;;;11.00;6.22;;;;;;;4.46;71.86;101856.09;2081458;28;20029;-78
2021/03/30 02:09:37;;;;;;;14.98;7.00;;;;;;;4.40;72.13;101852.50;2074654;28;20128;-78
2021/03/30 02:11:51;;;;;;;12.98;6.65;;;;;;;4.33;72.06;101849.81;2081461;28;20052;-78
2021/03/30 02:12:51;;;;;;;13.60;6.70;;;;;;;4.27;72.09;101852.22;2081984;28;20387;-78
2021/03/30 02:13:58;;;;;;;13.07;6.47;;;;;;;4.29;72.43;101853.16;2072971;28;20026;-78
2021/03/30 02:14:58;;;;;;;16.38;7.13;;;;;;;4.23;72.18;101855.59;2073998;28;20395;-78
2021/03/30 02:16:10;;;;;;;13.93;6.70;;;;;;;4.16;72.64;101859.75;2081883;28;20029;-78
2021/03/30 02:17:23;;;;;;;15.95;6.88;;;;;;;4.11;72.33;101851.03;2079593;28;20033;-78
2021/03/30 02:18:28;;;;;;;11.25;6.57;;;;;;;4.11;71.95;101857.91;2081664;28;20088;-78
2021/03/30 02:19:41;;;;;;;13.13;6.68;;;;;;;4.16;71.23;101853.72;2073645;28;20022;-78
2021/03/30 02:20:46;;;;;;;12.75;6.28;;;;;;;4.05;71.86;101856.03;2073832;28;20029;-78
2021/03/30 02:21:56;;;;;;;14.95;6.80;;;;;;;4.11;72.33;101855.31;2073553;28;20029;-78
2021/03/30 02:23:02;;;;;;;17.75;6.88;;;;;;;4.05;73.09;101856.03;2073884;28;20021;-78
2021/03/30 02:24:08;;;;;;;14.65;6.50;;;;;;;4.18;72.76;101858.09;2073803;28;20049;-78
2021/03/30 02:25:09;;;;;;;11.48;6.70;;;;;;;4.20;72.52;101858.09;2064938;28;20030;-78
2021/03/30 02:26:12;;;;;;;12.43;6.18;;;;;;;4.21;72.42;101850.38;2064969;28;20077;-78
2021/03/30 02:27:13;;;;;;;12.68;6.30;;;;;;;4.20;72.46;101860.69;2073828;28;20088;-78
2021/03/30 02:28:19;;;;;;;11.32;6.80;;;;;;;4.12;72.90;101855.34;2076573;28;20463;-78
2021/03/30 02:29:23;;;;;;;12.73;6.30;;;;;;;4.05;73.25;101863.78;2073668;28;20030;-78
2021/03/30 02:30:26;;;;;;;10.68;6.47;;;;;;;4.13;73.04;101856.22;2073560;28;20506;-78
2021/03/30 02:31:31;;;;;;;11.45;5.78;;;;;;;4.17;72.75;101853.75;2073108;28;20072;-78
2021/03/30 02:32:32;;;;;;;10.98;5.57;;;;;;;4.51;71.43;101856.22;2073408;28;20026;-78
2021/03/30 02:33:34;;;;;;;13.85;5.97;;;;;;;4.50;71.07;101847.59;2072974;28;20025;-78
2021/03/30 02:34:37;;;;;;;9.95;5.72;;;;;;;4.71;70.25;101846.28;2072784;28;20122;-78
2021/03/30 02:35:38;;;;;;;11.10;5.85;;;;;;;4.59;70.82;101846.91;2073032;28;20037;-78
2021/03/30 02:36:39;;;;;;;12.02;5.50;;;;;;;4.61;70.51;101854.69;2073447;28;20025;-78
2021/03/30 02:37:41;;;;;;;15.80;6.72;;;;;;;4.55;70.92;101852.88;2073489;28;20233;-78
2021/03/30 02:38:42;;;;;;;10.93;5.57;;;;;;;4.53;70.87;101859.69;2078679;28;20471;-78
2021/03/30 02:39:43;;;;;;;13.80;5.90;;;;;;;4.51;71.34;101853.63;2081763;28;20384;-78
2021/03/30 02:40:45;;;;;;;11.23;5.47;;;;;;;4.52;70.53;101845.03;2081567;28;20053;-78
2021/03/30 02:41:48;;;;;;;11.13;5.70;;;;;;;4.55;70.59;101839.94;2081581;28;20025;-78
2021/03/30 02:42:51;;;;;;;13.45;5.70;;;;;;;4.53;70.64;101836.47;2072739;28;20101;-78
2021/03/30 02:43:53;;;;;;;12.07;5.90;;;;;;;4.50;70.64;101841.56;2072934;28;20017;-78
2021/03/30 02:44:54;;;;;;;11.77;5.72;;;;;;;4.45;71.08;101845.75;2081290;28;20017;-78
2021/03/30 02:45:55;;;;;;;13.48;5.43;;;;;;;4.43;70.93;101844.84;2082825;28;20104;-78
2021/03/30 02:46:56;;;;;;;9.75;5.72;;;;;;;4.45;71.30;101840.59;2076913;28;20029;-78
2021/03/30 02:48:03;;;;;;;9.98;5.07;;;;;;;4.41;70.93;101833.59;2077725;28;20009;-78
2021/03/30 02:49:03;;;;;;;14.80;5.70;;;;;;;4.40;70.41;101844.78;2073466;28;20025;-78
2021/03/30 02:50:06;;;;;;;10.33;5.37;;;;;;;4.62;69.04;101846.97;2073542;28;20021;-78
2021/03/30 02:51:07;;;;;;;9.30;5.20;;;;;;;4.62;69.26;101840.94;2064385;28;20022;-78
2021/03/30 02:52:09;;;;;;;9.80;5.40;;;;;;;4.59;69.36;101839.16;2064839;28;20491;-78
2021/03/30 02:53:10;;;;;;;10.38;5.05;;;;;;;4.79;68.39;101844.75;2073320;28;20494;-78
2021/03/30 02:54:10;;;;;;;12.15;5.45;;;;;;;4.73;68.61;101848.91;2073352;28;20040;-78
2021/03/30 02:55:11;;;;;;;8.07;4.70;;;;;;;4.65;68.68;101852.19;2073374;28;20029;-78
2021/03/30 02:56:12;;;;;;;10.60;5.18;;;;;;;4.63;68.76;101846.16;2073496;28;20026;-78
2021/03/30 02:57:14;;;;;;;8.75;5.30;;;;;;;4.66;68.56;101846.19;2073327;28;20060;-78
2021/03/30 02:58:14;;;;;;;10.27;5.25;;;;;;;4.70;68.09;101847.16;2066061;28;20029;-78
2021/03/30 02:59:18;;;;;;;10.87;5.13;;;;;;;4.75;68.55;101857.56;2073090;28;20034;-78
2021/03/30 03:00:19;;;;;;;9.73;5.00;;;;;;;4.69;68.49;101845.41;2081933;28;20033;-78
2021/03/30 03:01:22;;;;;;;10.18;5.78;;;;;;;4.81;67.80;101853.38;2084258;28;20055;-78
2021/03/30 03:02:24;;;;;;;10.48;5.22;;;;;;;4.76;67.90;101848.97;2082306;28;20391;-78
2021/03/30 03:03:26;;;;;;;10.23;4.82;;;;;;;4.91;67.68;101862.19;2064945;28;20117;-78
2021/03/30 03:04:27;;;;;;;10.00;5.60;;;;;;;4.75;67.95;101852.41;2065105;28;20509;-78
2021/03/30 03:05:27;;;;;;;10.25;4.80;;;;;;;4.89;67.86;101845.78;2073436;28;20109;-78
2021/03/30 03:06:29;;;;;;;11.80;5.10;;;;;;;4.93;67.64;101855.34;2076579;28;20022;-78
2021/03/30 03:07:29;;;;;;;9.73;4.68;;;;;;;4.84;67.81;101850.00;2071986;28;20029;-78
2021/03/30 03:08:31;;;;;;;9.93;4.97;;;;;;;4.76;68.43;101854.13;2060385;28;20030;-78
2021/03/30 03:09:33;;;;;;;12.45;4.72;;;;;;;4.75;68.55;101857.56;2072805;28;20030;-78
2021/03/30 03:10:36;;;;;;;8.70;4.88;;;;;;;4.70;68.71;101854.91;2073556;28;20080;-78
2021/03/30 03:11:43;;;;;;;9.85;4.93;;;;;;;4.71;68.91;101854.03;2073092;28;20018;-78
2021/03/30 03:12:45;;;;;;;10.32;4.72;;;;;;;4.59;69.11;101851.22;2073559;28;20133;-78
2021/03/30 03:13:48;;;;;;;10.73;5.30;;;;;;;4.50;69.84;101857.03;2075194;28;20627;-78
2021/03/30 03:14:50;;;;;;;9.18;5.03;;;;;;;4.43;70.11;101855.19;2078385;28;20061;-78
2021/03/30 03:15:51;;;;;;;10.95;5.30;;;;;;;4.31;70.14;101850.63;2080435;28;20026;-78
2021/03/30 03:16:51;;;;;;;10.60;5.07;;;;;;;4.25;70.71;101853.94;2083002;28;20017;-78
2021/03/30 03:17:54;;;;;;;11.43;5.30;;;;;;;4.21;71.44;101860.72;2077538;28;20030;-78
2021/03/30 03:18:55;;;;;;;8.40;5.05;;;;;;;4.13;71.87;101856.22;2077578;28;20476;-78
2021/03/30 03:19:56;;;;;;;10.48;5.60;;;;;;;4.12;72.03;101864.81;2081631;28;20036;-78
2021/03/30 03:20:58;;;;;;;10.30;5.25;;;;;;;4.04;72.73;101860.34;2072632;28;20412;-78
2021/03/30 03:21:58;;;;;;;9.57;5.18;;;;;;;3.98;72.65;101855.03;2073691;28;20081;-78
2021/03/30 03:23:00;;;;;;;9.90;5.33;;;;;;;3.93;73.84;101854.06;2076815;28;20193;-78
2021/03/30 03:24:03;;;;;;;7.47;5.30;;;;;;;3.91;73.58;101866.03;2078121;28;20021;-78
2021/03/30 03:25:07;;;;;;;15.43;6.15;;;;;;;3.83;73.90;101860.69;2081388;28;20476;-78
2021/03/30 03:26:15;;;;;;;9.02;5.50;;;;;;;3.75;74.23;101859.63;2075675;28;20444;-78
2021/03/30 03:27:16;;;;;;;14.57;5.82;;;;;;;3.68;74.54;101858.59;2073214;28;20026;-78
2021/03/30 03:28:16;;;;;;;9.27;5.70;;;;;;;3.62;74.80;101858.47;2074383;28;20476;-78
2021/03/30 03:29:19;;;;;;;8.97;5.80;;;;;;;3.58;75.04;101861.78;2080508;28;20030;-78
2021/03/30 03:30:21;;;;;;;9.95;5.55;;;;;;;3.53;75.03;101864.25;2081203;28;20025;-78
2021/03/30 03:31:26;;;;;;;;;;;;;;;3.50;75.53;101865.88;2077504;28;20029;-78
2021/03/30 03:32:26;;;;;;;9.70;5.55;;;;;;;3.47;76.20;101864.09;2074593;28;20391;-78
2021/03/30 03:33:27;;;;;;;13.13;5.70;;;;;;;3.43;76.76;101863.16;2077040;28;20031;-78
2021/03/30 03:34:27;;;;;;;8.57;5.28;;;;;;;3.42;76.77;101861.41;2074490;28;20025;-78
2021/03/30 03:35:28;;;;;;;11.87;5.80;;;;;;;3.40;76.76;101865.63;2073211;28;20030;-78
2021/03/30 03:36:39;;;;;;;11.97;5.53;;;;;;;3.31;76.40;101873.13;2073160;28;20510;-78
2021/03/30 03:37:44;;;;;;;10.57;6.10;;;;;;;3.33;76.79;101866.31;2072448;28;20064;-78
2021/03/30 03:38:45;;;;;;;10.32;5.38;;;;;;;3.31;76.73;101861.97;2072619;28;20032;-78
2021/03/30 03:39:45;;;;;;;9.07;5.27;;;;;;;3.24;76.89;101860.91;2081180;28;20403;-78
2021/03/30 03:40:45;;;;;;;11.30;6.00;;;;;;;3.21;77.17;101860.81;2081216;28;20488;-78
2021/03/30 03:41:46;;;;;;;9.93;5.83;;;;;;;3.19;77.39;101859.91;2081177;28;20108;-78
2021/03/30 03:42:46;;;;;;;10.60;5.78;;;;;;;3.16;78.40;101859.84;2081246;28;20029;-78
2021/03/30 03:43:49;;;;;;;10.10;5.93;;;;;;;3.13;79.14;101857.16;2076005;28;20048;-78
2021/03/30 03:44:49;;;;;;;16.33;6.70;;;;;;;3.07;79.19;101866.50;2073746;28;20496;-78
2021/03/30 03:45:50;;;;;;;12.87;6.67;;;;;;;3.05;79.48;101864.69;2080814;28;20033;-78
2021/03/30 03:46:53;;;;;;;19.23;6.30;;;;;;;3.04;79.79;101862.94;2072391;28;20743;-78
2021/03/30 03:47:53;;;;;;;17.15;7.03;;;;;;;2.98;79.16;101866.25;2072798;28;20025;-78
2021/03/30 03:48:54;;;;;;;11.83;6.83;;;;;;;2.93;79.12;101854.91;2080416;28;20475;-78
2021/03/30 03:49:54;;;;;;;13.98;6.47;;;;;;;2.97;79.84;101861.91;2080973;28;20021;-78
2021/03/30 03:50:58;;;;;;;13.27;6.40;;;;;;;3.01;80.08;101868.03;2080840;28;20029;-78
2021/03/30 03:52:02;;;;;;;15.85;6.57;;;;;;;3.03;80.00;101863.78;2078824;28;20028;-78
2021/03/30 03:53:04;;;;;;;13.43;7.10;;;;;;;2.98;79.75;101858.50;2067174;28;20030;-78
2021/03/30 03:54:08;;;;;;;17.48;7.18;;;;;;;2.94;79.96;101861.81;2061668;28;20188;-78
2021/03/30 03:55:09;;;;;;;14.15;6.95;;;;;;;2.94;80.20;101860.09;2072088;28;20413;-78
2021/03/30 03:56:12;;;;;;;13.38;6.53;;;;;;;2.88;80.29;101861.66;2080499;28;20047;-78
2021/03/30 03:57:27;;;;;;;13.90;7.65;;;;;;;2.86;80.29;101864.16;2080438;28;20172;-78
2021/03/30 03:58:33;;;;;;;10.45;6.50;;;;;;;2.82;80.33;101867.50;2081317;28;20017;-78
2021/03/30 03:59:35;;;;;;;14.32;7.15;;;;;;;2.81;79.82;101868.34;2081179;28;20479;-78
2021/03/30 04:00:36;;;;;;;11.48;6.93;;;;;;;2.76;79.52;101865.63;2080077;28;20022;-78
2021/03/30 04:01:56;;;;;;;;;;;;;;;2.73;79.59;101870.69;2078422;28;20034;-78
2021/03/30 04:03:05;;;;;;;11.23;6.63;;;;;;;2.67;80.30;101867.94;2075410;28;19917;-78
2021/03/30 04:04:14;;;;;;;10.98;6.00;;;;;;;2.62;80.68;101866.91;2078207;28;20036;-78
2021/03/30 04:05:17;;;;;;;10.70;6.75;;;;;;;2.63;81.26;101871.22;2072321;28;20068;-78
2021/03/30 04:06:22;;;;;;;12.18;6.70;;;;;;;2.59;80.83;101869.41;2074055;28;20544;-78
2021/03/30 04:07:26;;;;;;;12.60;6.70;;;;;;;2.61;81.12;101873.78;2080869;28;20029;-78
2021/03/30 04:08:30;;;;;;;12.82;6.72;;;;;;;2.56;80.96;101874.47;2081103;28;20021;-78
2021/03/30 04:09:33;;;;;;;13.90;6.85;;;;;;;2.55;81.60;101875.28;2080457;28;20044;-78
2021/03/30 04:10:34;;;;;;;12.23;6.63;;;;;;;2.51;81.83;101878.59;2080951;28;20029;-78
2021/03/30 04:11:35;;;;;;;9.15;6.65;;;;;;;2.42;81.94;101874.91;2080769;28;20026;-78
2021/03/30 04:12:38;;;;;;;10.77;6.40;;;;;;;2.39;82.21;101877.41;2081309;28;20029;-78
2021/03/30 04:13:39;;;;;;;13.20;6.88;;;;;;;2.36;82.28;101877.31;2081304;28;20484;-78
2021/03/30 04:14:39;;;;;;;13.57;7.40;;;;;;;2.41;82.44;101880.88;2080612;28;20049;-78
2021/03/30 04:15:39;;;;;;;13.57;6.87;;;;;;;2.41;82.29;101886.03;2081161;28;20041;-78
2021/03/30 04:16:40;;;;;;;13.90;6.80;;;;;;;2.41;82.25;101880.88;2076206;28;20112;-78
2021/03/30 04:17:41;;;;;;;11.25;7.13;;;;;;;2.36;82.73;101877.31;2073830;28;20061;-78
2021/03/30 04:18:42;;;;;;;12.95;7.03;;;;;;;2.35;82.73;101879.84;2072962;28;20053;-78
2021/03/30 04:19:46;;;;;;;12.73;6.97;;;;;;;2.34;83.12;101886.69;2073075;28;20029;-78
2021/03/30 04:20:47;;;;;;;15.50;7.05;;;;;;;2.29;83.39;101880.53;2072826;28;20104;-78
2021/03/30 04:21:47;;;;;;;11.20;6.97;;;;;;;2.32;83.58;101880.59;2078160;28;20071;-78
2021/03/30 04:22:56;;;;;;;11.63;6.53;;;;;;;2.30;83.00;101880.56;2078629;28;20060;-78
2021/03/30 04:23:58;;;;;;;9.60;6.10;;;;;;;2.30;82.61;101882.28;2076866;28;20109;-78
2021/03/30 04:24:58;;;;;;;14.00;7.38;;;;;;;2.35;82.57;101879.84;2073190;28;20049;-78
2021/03/30 04:25:58;;;;;;;12.73;7.10;;;;;;;2.32;82.99;101886.63;2075677;28;20036;-78
2021/03/30 04:26:58;;;;;;;13.03;6.93;;;;;;;2.28;83.27;101878.78;2081073;28;20021;-78
2021/03/30 04:27:59;;;;;;;13.07;6.80;;;;;;;2.27;83.63;101877.03;2076611;28;20063;-78
2021/03/30 04:28:59;;;;;;;12.83;7.30;;;;;;;2.24;84.11;101877.81;2072895;28;20095;-78
2021/03/30 04:30:00;;;;;;;11.73;7.27;;;;;;;2.28;83.75;101878.78;2073118;28;20026;-78
2021/03/30 04:31:00;;;;;;;12.48;7.28;;;;;;;2.23;84.23;101885.47;2072717;28;20523;-78
2021/03/30 04:32:00;;;;;;;12.40;6.93;;;;;;;2.22;84.23;101881.13;2071245;28;20022;-78
2021/03/30 04:33:01;;;;;;;12.73;7.10;;;;;;;2.20;83.97;101885.38;2069530;28;20042;-78
2021/03/30 04:34:02;;;;;;;10.52;7.13;;;;;;;2.20;84.58;101877.66;2072933;28;20057;-78
2021/03/30 04:35:03;;;;;;;12.88;6.90;;;;;;;2.18;84.64;101882.75;2072405;28;20025;-78
2021/03/30 04:36:04;;;;;;;12.85;7.47;;;;;;;2.18;84.57;101878.50;2072597;28;20034;-78
2021/03/30 04:37:05;;;;;;;11.93;7.32;;;;;;;2.17;84.66;101879.31;2077452;28;20057;-78
2021/03/30 04:38:05;;;;;;;13.63;6.38;;;;;;;2.24;84.86;101882.06;2071763;28;20026;-78
2021/03/30 04:39:06;;;;;;;12.60;6.83;;;;;;;2.33;84.90;101874.63;2065684;28;20035;-78
2021/03/30 04:40:08;;;;;;;13.27;6.83;;;;;;;2.32;84.54;101880.59;2072410;28;20085;-78
2021/03/30 04:41:09;;;;;;;12.13;7.13;;;;;;;2.38;84.37;101879.91;2080857;28;20635;-78
2021/03/30 04:42:09;;;;;;;11.80;7.07;;;;;;;2.44;84.16;101875.84;2081248;28;20108;-78
2021/03/30 04:43:09;;;;;;;10.27;6.43;;;;;;;2.36;84.28;101876.41;2076246;28;20080;-78
2021/03/30 04:44:10;;;;;;;9.90;7.03;;;;;;;2.39;84.19;101886.81;2073078;28;20037;-78
2021/03/30 04:45:10;;;;;;;13.23;6.67;;;;;;;2.29;83.98;101885.69;2071064;28;20036;-78
2021/03/30 04:46:10;;;;;;;13.10;6.83;;;;;;;2.22;84.19;101887.19;2071836;28;20030;-78
2021/03/30 04:47:11;;;;;;;11.53;6.80;;;;;;;2.19;84.56;101894.78;2077584;28;20758;-78
2021/03/30 04:48:11;;;;;;;12.17;7.13;;;;;;;2.20;84.68;101896.53;2081634;28;20100;-78
2021/03/30 04:49:11;;;;;;;14.87;7.83;;;;;;;2.23;84.51;101893.19;2081140;28;20108;-78
2021/03/30 04:50:12;;;;;;;16.17;7.27;;;;;;;2.23;84.37;101893.19;2081283;28;20043;-78
2021/03/30 04:51:12;;;;;;;14.38;8.48;;;;;;;2.18;84.73;101893.94;2081005;28;20025;-78
2021/03/30 04:52:13;;;;;;;15.40;9.33;;;;;;;2.26;84.55;101895.88;2078290;28;20106;-78
2021/03/30 04:53:13;;;;;;;15.27;8.50;;;;;;;2.36;83.93;101897.91;2074500;28;20492;-78
2021/03/30 04:54:13;;;;;;;17.67;8.27;;;;;;;2.39;83.52;101898.00;2079567;28;20025;-78
2021/03/30 04:55:15;;;;;;;15.30;8.20;;;;;;;2.32;83.55;101891.78;2074475;28;20176;-78
2021/03/30 04:56:15;;;;;;;12.50;7.50;;;;;;;2.38;83.40;101901.41;2072810;28;20037;-78